sensor_id;sensor_type;location;lat;lon;timestamp;P1;durP1;ratioP1;P2;durP2;ratioP2
73132;SDS011;61320;52.008;4.530;2023-09-18T00:00:40;29.34;;;29.34;;
73132;SDS011;61320;52.008;4.530;2023-09-18T00:03:07;29.15;;;29.15;;
73132;SDS011;61320;52.008;4.530;2023-09-18T00:05:33;28.78;;;28.78;;
73132;SDS011;61320;52.008;4.530;2023-09-18T00:07:59;28.90;;;28.90;;
73132;SDS011;61320;52.008;4.530;2023-09-18T00:10:27;28.60;;;28.60;;
73132;SDS011;61320;52.008;4.530;2023-09-18T00:12:54;27.87;;;27.86;;
73132;SDS011;61320;52.008;4.530;2023-09-18T00:15:19;27.58;;;27.58;;
73132;SDS011;61320;52.008;4.530;2023-09-18T00:17:45;28.11;;;28.11;;
73132;SDS011;61320;52.008;4.530;2023-09-18T00:20:11;27.49;;;27.43;;
73132;SDS011;61320;52.008;4.530;2023-09-18T00:22:37;27.28;;;27.24;;
73132;SDS011;61320;52.008;4.530;2023-09-18T00:25:02;27.37;;;27.37;;
73132;SDS011;61320;52.008;4.530;2023-09-18T00:27:28;26.94;;;26.94;;
73132;SDS011;61320;52.008;4.530;2023-09-18T00:29:54;26.57;;;26.57;;
73132;SDS011;61320;52.008;4.530;2023-09-18T00:32:20;26.42;;;26.42;;
73132;SDS011;61320;52.008;4.530;2023-09-18T00:34:45;25.93;;;25.88;;
73132;SDS011;61320;52.008;4.530;2023-09-18T00:37:11;25.00;;;25.00;;
73132;SDS011;61320;52.008;4.530;2023-09-18T00:39:37;24.87;;;24.87;;
73132;SDS011;61320;52.008;4.530;2023-09-18T00:42:03;25.21;;;25.21;;
73132;SDS011;61320;52.008;4.530;2023-09-18T00:44:29;25.24;;;25.24;;
73132;SDS011;61320;52.008;4.530;2023-09-18T00:46:54;25.12;;;25.12;;
73132;SDS011;61320;52.008;4.530;2023-09-18T00:49:21;25.12;;;25.12;;
73132;SDS011;61320;52.008;4.530;2023-09-18T00:51:48;25.04;;;25.04;;
73132;SDS011;61320;52.008;4.530;2023-09-18T00:54:16;25.16;;;25.16;;
73132;SDS011;61320;52.008;4.530;2023-09-18T00:56:44;25.70;;;25.67;;
73132;SDS011;61320;52.008;4.530;2023-09-18T00:59:13;25.01;;;25.01;;
73132;SDS011;61320;52.008;4.530;2023-09-18T01:01:40;25.15;;;25.15;;
73132;SDS011;61320;52.008;4.530;2023-09-18T01:04:07;24.56;;;24.56;;
73132;SDS011;61320;52.008;4.530;2023-09-18T01:06:33;25.11;;;25.11;;
73132;SDS011;61320;52.008;4.530;2023-09-18T01:08:58;25.02;;;25.02;;
73132;SDS011;61320;52.008;4.530;2023-09-18T01:19:42;24.12;;;24.12;;
73132;SDS011;61320;52.008;4.530;2023-09-18T01:22:13;24.86;;;24.86;;
73132;SDS011;61320;52.008;4.530;2023-09-18T01:24:41;25.56;;;25.56;;
73132;SDS011;61320;52.008;4.530;2023-09-18T01:27:09;25.23;;;25.23;;
73132;SDS011;61320;52.008;4.530;2023-09-18T01:29:38;25.78;;;25.78;;
73132;SDS011;61320;52.008;4.530;2023-09-18T01:32:04;25.67;;;25.67;;
73132;SDS011;61320;52.008;4.530;2023-09-18T01:34:33;25.49;;;25.49;;
73132;SDS011;61320;52.008;4.530;2023-09-18T01:37:02;26.03;;;26.03;;
73132;SDS011;61320;52.008;4.530;2023-09-18T01:39:29;26.16;;;26.16;;
73132;SDS011;61320;52.008;4.530;2023-09-18T01:41:58;25.71;;;25.71;;
73132;SDS011;61320;52.008;4.530;2023-09-18T01:44:26;25.31;;;25.31;;
73132;SDS011;61320;52.008;4.530;2023-09-18T01:46:53;26.19;;;26.19;;
73132;SDS011;61320;52.008;4.530;2023-09-18T01:49:28;25.43;;;25.43;;
73132;SDS011;61320;52.008;4.530;2023-09-18T01:52:02;25.74;;;25.74;;
73132;SDS011;61320;52.008;4.530;2023-09-18T01:54:29;25.79;;;25.79;;
73132;SDS011;61320;52.008;4.530;2023-09-18T01:56:55;25.95;;;25.95;;
73132;SDS011;61320;52.008;4.530;2023-09-18T01:59:21;25.86;;;25.86;;
73132;SDS011;61320;52.008;4.530;2023-09-18T02:01:48;25.47;;;25.47;;
73132;SDS011;61320;52.008;4.530;2023-09-18T02:04:14;25.11;;;25.11;;
73132;SDS011;61320;52.008;4.530;2023-09-18T02:06:40;26.08;;;26.08;;
73132;SDS011;61320;52.008;4.530;2023-09-18T02:09:05;25.52;;;25.52;;
73132;SDS011;61320;52.008;4.530;2023-09-18T02:11:38;26.16;;;26.16;;
73132;SDS011;61320;52.008;4.530;2023-09-18T02:14:05;25.02;;;25.02;;
73132;SDS011;61320;52.008;4.530;2023-09-18T02:16:33;24.09;;;24.09;;
73132;SDS011;61320;52.008;4.530;2023-09-18T02:18:58;25.29;;;25.29;;
73132;SDS011;61320;52.008;4.530;2023-09-18T02:21:24;24.47;;;24.47;;
73132;SDS011;61320;52.008;4.530;2023-09-18T02:23:51;24.14;;;24.14;;
73132;SDS011;61320;52.008;4.530;2023-09-18T02:26:17;23.24;;;23.24;;
73132;SDS011;61320;52.008;4.530;2023-09-18T02:28:43;23.91;;;23.91;;
73132;SDS011;61320;52.008;4.530;2023-09-18T02:31:09;23.20;;;23.20;;
73132;SDS011;61320;52.008;4.530;2023-09-18T02:33:35;22.56;;;22.56;;
73132;SDS011;61320;52.008;4.530;2023-09-18T02:36:00;22.00;;;22.00;;
73132;SDS011;61320;52.008;4.530;2023-09-18T02:38:26;21.72;;;21.72;;
73132;SDS011;61320;52.008;4.530;2023-09-18T02:40:53;21.86;;;21.86;;
73132;SDS011;61320;52.008;4.530;2023-09-18T02:43:19;22.29;;;22.29;;
73132;SDS011;61320;52.008;4.530;2023-09-18T02:45:45;21.89;;;21.89;;
73132;SDS011;61320;52.008;4.530;2023-09-18T02:48:11;21.57;;;21.57;;
73132;SDS011;61320;52.008;4.530;2023-09-18T02:50:36;20.91;;;20.91;;
73132;SDS011;61320;52.008;4.530;2023-09-18T02:53:02;20.85;;;20.85;;
73132;SDS011;61320;52.008;4.530;2023-09-18T02:55:28;21.05;;;21.05;;
73132;SDS011;61320;52.008;4.530;2023-09-18T02:57:54;20.07;;;20.07;;
73132;SDS011;61320;52.008;4.530;2023-09-18T03:00:19;19.91;;;19.91;;
73132;SDS011;61320;52.008;4.530;2023-09-18T03:02:46;18.80;;;18.80;;
73132;SDS011;61320;52.008;4.530;2023-09-18T03:05:11;18.95;;;18.95;;
73132;SDS011;61320;52.008;4.530;2023-09-18T03:07:37;19.52;;;19.52;;
73132;SDS011;61320;52.008;4.530;2023-09-18T03:10:02;19.35;;;19.35;;
73132;SDS011;61320;52.008;4.530;2023-09-18T03:12:30;20.29;;;20.29;;
73132;SDS011;61320;52.008;4.530;2023-09-18T03:14:56;20.94;;;20.94;;
73132;SDS011;61320;52.008;4.530;2023-09-18T03:17:22;18.73;;;18.73;;
73132;SDS011;61320;52.008;4.530;2023-09-18T03:19:48;19.18;;;19.18;;
73132;SDS011;61320;52.008;4.530;2023-09-18T03:22:14;18.67;;;18.67;;
73132;SDS011;61320;52.008;4.530;2023-09-18T03:24:39;19.10;;;19.10;;
73132;SDS011;61320;52.008;4.530;2023-09-18T03:27:05;19.08;;;19.08;;
73132;SDS011;61320;52.008;4.530;2023-09-18T03:29:30;19.84;;;19.84;;
73132;SDS011;61320;52.008;4.530;2023-09-18T03:31:56;19.50;;;19.50;;
73132;SDS011;61320;52.008;4.530;2023-09-18T03:34:23;20.32;;;20.32;;
73132;SDS011;61320;52.008;4.530;2023-09-18T03:36:52;18.73;;;18.73;;
73132;SDS011;61320;52.008;4.530;2023-09-18T03:39:18;18.53;;;18.53;;
73132;SDS011;61320;52.008;4.530;2023-09-18T03:41:43;17.59;;;17.59;;
73132;SDS011;61320;52.008;4.530;2023-09-18T03:44:09;17.34;;;17.34;;
73132;SDS011;61320;52.008;4.530;2023-09-18T03:46:35;17.63;;;17.63;;
73132;SDS011;61320;52.008;4.530;2023-09-18T03:49:01;17.14;;;17.14;;
73132;SDS011;61320;52.008;4.530;2023-09-18T03:51:28;16.99;;;16.99;;
73132;SDS011;61320;52.008;4.530;2023-09-18T03:53:55;16.38;;;16.38;;
73132;SDS011;61320;52.008;4.530;2023-09-18T03:56:20;15.18;;;15.18;;
73132;SDS011;61320;52.008;4.530;2023-09-18T03:58:47;14.54;;;14.54;;
73132;SDS011;61320;52.008;4.530;2023-09-18T04:01:17;13.53;;;13.53;;
73132;SDS011;61320;52.008;4.530;2023-09-18T04:03:43;11.80;;;11.80;;
73132;SDS011;61320;52.008;4.530;2023-09-18T04:06:08;8.85;;;8.85;;
73132;SDS011;61320;52.008;4.530;2023-09-18T04:08:34;6.66;;;6.66;;
73132;SDS011;61320;52.008;4.530;2023-09-18T04:11:00;6.15;;;6.15;;
73132;SDS011;61320;52.008;4.530;2023-09-18T04:13:25;5.68;;;5.68;;
73132;SDS011;61320;52.008;4.530;2023-09-18T04:15:51;5.80;;;5.80;;
73132;SDS011;61320;52.008;4.530;2023-09-18T04:18:22;5.89;;;5.89;;
73132;SDS011;61320;52.008;4.530;2023-09-18T04:20:47;5.93;;;5.93;;
73132;SDS011;61320;52.008;4.530;2023-09-18T04:23:22;5.51;;;5.51;;
73132;SDS011;61320;52.008;4.530;2023-09-18T04:25:50;5.98;;;5.98;;
73132;SDS011;61320;52.008;4.530;2023-09-18T04:28:17;6.13;;;6.13;;
73132;SDS011;61320;52.008;4.530;2023-09-18T04:30:44;6.43;;;6.43;;
73132;SDS011;61320;52.008;4.530;2023-09-18T04:33:11;6.66;;;6.66;;
73132;SDS011;61320;52.008;4.530;2023-09-18T04:35:38;7.34;;;7.34;;
73132;SDS011;61320;52.008;4.530;2023-09-18T04:38:07;7.78;;;7.78;;
73132;SDS011;61320;52.008;4.530;2023-09-18T04:40:36;8.45;;;8.45;;
73132;SDS011;61320;52.008;4.530;2023-09-18T04:43:02;8.72;;;8.72;;
73132;SDS011;61320;52.008;4.530;2023-09-18T04:45:31;8.90;;;8.90;;
73132;SDS011;61320;52.008;4.530;2023-09-18T04:47:57;8.98;;;8.98;;
73132;SDS011;61320;52.008;4.530;2023-09-18T04:50:22;9.06;;;9.06;;
73132;SDS011;61320;52.008;4.530;2023-09-18T04:52:48;8.96;;;8.96;;
73132;SDS011;61320;52.008;4.530;2023-09-18T04:55:15;9.36;;;9.36;;
73132;SDS011;61320;52.008;4.530;2023-09-18T04:57:41;9.10;;;9.10;;
73132;SDS011;61320;52.008;4.530;2023-09-18T05:00:07;9.45;;;9.45;;
73132;SDS011;61320;52.008;4.530;2023-09-18T05:02:34;9.12;;;9.12;;
73132;SDS011;61320;52.008;4.530;2023-09-18T05:05:00;10.08;;;10.08;;
73132;SDS011;61320;52.008;4.530;2023-09-18T05:07:26;13.36;;;13.36;;
73132;SDS011;61320;52.008;4.530;2023-09-18T05:09:52;13.64;;;13.64;;
73132;SDS011;61320;52.008;4.530;2023-09-18T05:12:17;13.89;;;13.89;;
73132;SDS011;61320;52.008;4.530;2023-09-18T05:14:43;12.30;;;12.30;;
73132;SDS011;61320;52.008;4.530;2023-09-18T05:17:10;11.01;;;11.01;;
73132;SDS011;61320;52.008;4.530;2023-09-18T05:19:41;10.38;;;10.38;;
73132;SDS011;61320;52.008;4.530;2023-09-18T05:22:13;11.22;;;11.22;;
73132;SDS011;61320;52.008;4.530;2023-09-18T05:24:39;11.81;;;11.81;;
73132;SDS011;61320;52.008;4.530;2023-09-18T05:27:07;12.62;;;12.62;;
73132;SDS011;61320;52.008;4.530;2023-09-18T05:29:33;18.25;;;18.25;;
73132;SDS011;61320;52.008;4.530;2023-09-18T05:32:03;13.73;;;13.73;;
73132;SDS011;61320;52.008;4.530;2023-09-18T05:34:29;13.86;;;13.86;;
73132;SDS011;61320;52.008;4.530;2023-09-18T05:36:54;13.40;;;13.40;;
73132;SDS011;61320;52.008;4.530;2023-09-18T05:39:20;15.89;;;15.89;;
73132;SDS011;61320;52.008;4.530;2023-09-18T05:41:45;14.90;;;14.90;;
73132;SDS011;61320;52.008;4.530;2023-09-18T05:44:11;13.98;;;13.98;;
73132;SDS011;61320;52.008;4.530;2023-09-18T05:46:36;14.55;;;14.55;;
73132;SDS011;61320;52.008;4.530;2023-09-18T05:49:02;14.80;;;14.80;;
73132;SDS011;61320;52.008;4.530;2023-09-18T05:51:28;14.44;;;14.44;;
73132;SDS011;61320;52.008;4.530;2023-09-18T05:53:54;14.33;;;14.33;;
73132;SDS011;61320;52.008;4.530;2023-09-18T05:56:20;14.42;;;14.42;;
73132;SDS011;61320;52.008;4.530;2023-09-18T05:58:46;14.85;;;14.85;;
73132;SDS011;61320;52.008;4.530;2023-09-18T06:01:11;15.07;;;15.07;;
73132;SDS011;61320;52.008;4.530;2023-09-18T06:03:37;14.84;;;14.84;;
73132;SDS011;61320;52.008;4.530;2023-09-18T06:06:02;14.77;;;14.77;;
73132;SDS011;61320;52.008;4.530;2023-09-18T06:08:28;13.86;;;13.86;;
73132;SDS011;61320;52.008;4.530;2023-09-18T06:10:56;15.00;;;15.00;;
73132;SDS011;61320;52.008;4.530;2023-09-18T06:13:25;14.56;;;14.56;;
73132;SDS011;61320;52.008;4.530;2023-09-18T06:15:53;14.38;;;14.38;;
73132;SDS011;61320;52.008;4.530;2023-09-18T06:18:20;14.15;;;14.15;;
73132;SDS011;61320;52.008;4.530;2023-09-18T06:20:47;17.49;;;17.49;;
73132;SDS011;61320;52.008;4.530;2023-09-18T06:23:12;18.26;;;18.26;;
73132;SDS011;61320;52.008;4.530;2023-09-18T06:25:38;14.58;;;14.58;;
73132;SDS011;61320;52.008;4.530;2023-09-18T06:28:04;13.83;;;13.83;;
73132;SDS011;61320;52.008;4.530;2023-09-18T06:30:31;12.97;;;12.97;;
73132;SDS011;61320;52.008;4.530;2023-09-18T06:32:58;12.54;;;12.54;;
73132;SDS011;61320;52.008;4.530;2023-09-18T06:35:24;12.62;;;12.62;;
73132;SDS011;61320;52.008;4.530;2023-09-18T06:37:50;12.80;;;12.80;;
73132;SDS011;61320;52.008;4.530;2023-09-18T06:40:16;12.44;;;12.44;;
73132;SDS011;61320;52.008;4.530;2023-09-18T06:42:41;11.88;;;11.88;;
73132;SDS011;61320;52.008;4.530;2023-09-18T06:45:07;11.81;;;11.81;;
73132;SDS011;61320;52.008;4.530;2023-09-18T06:47:33;11.74;;;11.74;;
73132;SDS011;61320;52.008;4.530;2023-09-18T06:49:59;11.08;;;11.08;;
73132;SDS011;61320;52.008;4.530;2023-09-18T06:52:25;9.98;;;9.98;;
73132;SDS011;61320;52.008;4.530;2023-09-18T06:54:53;8.70;;;8.70;;
73132;SDS011;61320;52.008;4.530;2023-09-18T06:57:19;8.11;;;8.11;;
73132;SDS011;61320;52.008;4.530;2023-09-18T06:59:46;7.43;;;7.43;;
73132;SDS011;61320;52.008;4.530;2023-09-18T07:02:12;7.29;;;7.29;;
73132;SDS011;61320;52.008;4.530;2023-09-18T07:04:39;6.51;;;6.51;;
73132;SDS011;61320;52.008;4.530;2023-09-18T07:07:10;6.80;;;6.80;;
73132;SDS011;61320;52.008;4.530;2023-09-18T07:09:37;7.28;;;7.28;;
73132;SDS011;61320;52.008;4.530;2023-09-18T07:12:02;7.23;;;7.23;;
73132;SDS011;61320;52.008;4.530;2023-09-18T07:14:28;6.88;;;6.88;;
73132;SDS011;61320;52.008;4.530;2023-09-18T07:16:53;7.17;;;7.17;;
73132;SDS011;61320;52.008;4.530;2023-09-18T07:19:19;7.07;;;7.07;;
73132;SDS011;61320;52.008;4.530;2023-09-18T07:21:44;6.96;;;6.96;;
73132;SDS011;61320;52.008;4.530;2023-09-18T07:24:10;6.57;;;6.57;;
73132;SDS011;61320;52.008;4.530;2023-09-18T07:26:41;6.78;;;6.78;;
73132;SDS011;61320;52.008;4.530;2023-09-18T07:29:07;6.70;;;6.70;;
73132;SDS011;61320;52.008;4.530;2023-09-18T07:31:32;6.10;;;6.10;;
73132;SDS011;61320;52.008;4.530;2023-09-18T07:33:58;5.80;;;5.80;;
73132;SDS011;61320;52.008;4.530;2023-09-18T07:36:24;5.75;;;5.75;;
73132;SDS011;61320;52.008;4.530;2023-09-18T07:38:49;5.98;;;5.98;;
73132;SDS011;61320;52.008;4.530;2023-09-18T07:41:15;5.92;;;5.92;;
73132;SDS011;61320;52.008;4.530;2023-09-18T07:43:40;5.48;;;5.48;;
73132;SDS011;61320;52.008;4.530;2023-09-18T07:46:06;5.58;;;5.58;;
73132;SDS011;61320;52.008;4.530;2023-09-18T07:48:32;5.68;;;5.68;;
73132;SDS011;61320;52.008;4.530;2023-09-18T07:50:57;5.39;;;5.39;;
73132;SDS011;61320;52.008;4.530;2023-09-18T07:53:23;5.54;;;5.54;;
73132;SDS011;61320;52.008;4.530;2023-09-18T07:55:54;5.58;;;5.58;;
73132;SDS011;61320;52.008;4.530;2023-09-18T07:58:22;5.53;;;5.53;;
73132;SDS011;61320;52.008;4.530;2023-09-18T08:00:47;5.65;;;5.65;;
73132;SDS011;61320;52.008;4.530;2023-09-18T08:03:13;5.69;;;5.69;;
73132;SDS011;61320;52.008;4.530;2023-09-18T08:05:39;5.28;;;5.28;;
73132;SDS011;61320;52.008;4.530;2023-09-18T08:08:08;5.38;;;5.38;;
73132;SDS011;61320;52.008;4.530;2023-09-18T08:10:36;5.64;;;5.64;;
73132;SDS011;61320;52.008;4.530;2023-09-18T08:13:05;5.75;;;5.75;;
73132;SDS011;61320;52.008;4.530;2023-09-18T08:15:30;5.68;;;5.68;;
73132;SDS011;61320;52.008;4.530;2023-09-18T08:17:56;5.76;;;5.76;;
73132;SDS011;61320;52.008;4.530;2023-09-18T08:20:21;5.65;;;5.65;;
73132;SDS011;61320;52.008;4.530;2023-09-18T08:22:47;5.75;;;5.75;;
73132;SDS011;61320;52.008;4.530;2023-09-18T08:25:13;5.87;;;5.87;;
73132;SDS011;61320;52.008;4.530;2023-09-18T08:27:41;6.39;;;6.39;;
73132;SDS011;61320;52.008;4.530;2023-09-18T08:30:09;6.47;;;6.47;;
73132;SDS011;61320;52.008;4.530;2023-09-18T08:32:36;6.67;;;6.67;;
73132;SDS011;61320;52.008;4.530;2023-09-18T08:35:02;6.73;;;6.73;;
73132;SDS011;61320;52.008;4.530;2023-09-18T08:37:28;6.64;;;6.64;;
73132;SDS011;61320;52.008;4.530;2023-09-18T08:39:54;6.62;;;6.62;;
73132;SDS011;61320;52.008;4.530;2023-09-18T08:42:20;6.27;;;6.27;;
73132;SDS011;61320;52.008;4.530;2023-09-18T08:44:47;6.10;;;6.10;;
73132;SDS011;61320;52.008;4.530;2023-09-18T08:47:16;5.71;;;5.71;;
73132;SDS011;61320;52.008;4.530;2023-09-18T08:49:44;4.69;;;4.69;;
73132;SDS011;61320;52.008;4.530;2023-09-18T08:52:13;4.46;;;4.46;;
73132;SDS011;61320;52.008;4.530;2023-09-18T08:54:40;3.95;;;3.95;;
73132;SDS011;61320;52.008;4.530;2023-09-18T08:57:08;3.92;;;3.92;;
73132;SDS011;61320;52.008;4.530;2023-09-18T08:59:34;4.03;;;4.03;;
73132;SDS011;61320;52.008;4.530;2023-09-18T09:02:04;3.81;;;3.81;;
73132;SDS011;61320;52.008;4.530;2023-09-18T09:04:29;3.88;;;3.88;;
73132;SDS011;61320;52.008;4.530;2023-09-18T09:06:55;4.09;;;4.09;;
73132;SDS011;61320;52.008;4.530;2023-09-18T09:09:24;4.10;;;4.10;;
73132;SDS011;61320;52.008;4.530;2023-09-18T09:11:51;4.34;;;4.34;;
73132;SDS011;61320;52.008;4.530;2023-09-18T09:14:17;4.48;;;4.48;;
73132;SDS011;61320;52.008;4.530;2023-09-18T09:16:50;4.37;;;4.37;;
73132;SDS011;61320;52.008;4.530;2023-09-18T09:19:17;4.13;;;4.13;;
73132;SDS011;61320;52.008;4.530;2023-09-18T09:21:52;4.37;;;4.37;;
73132;SDS011;61320;52.008;4.530;2023-09-18T09:24:19;4.42;;;4.42;;
73132;SDS011;61320;52.008;4.530;2023-09-18T09:27:10;4.31;;;4.31;;
73132;SDS011;61320;52.008;4.530;2023-09-18T09:29:37;4.24;;;4.24;;
73132;SDS011;61320;52.008;4.530;2023-09-18T09:32:13;4.16;;;4.16;;
73132;SDS011;61320;52.008;4.530;2023-09-18T09:34:42;4.12;;;4.12;;
73132;SDS011;61320;52.008;4.530;2023-09-18T09:37:09;4.04;;;4.04;;
73132;SDS011;61320;52.008;4.530;2023-09-18T09:39:57;4.13;;;4.13;;
73132;SDS011;61320;52.008;4.530;2023-09-18T09:42:21;4.83;;;4.83;;
73132;SDS011;61320;52.008;4.530;2023-09-18T09:45:00;4.78;;;4.78;;
73132;SDS011;61320;52.008;4.530;2023-09-18T09:47:32;4.63;;;4.63;;
73132;SDS011;61320;52.008;4.530;2023-09-18T09:50:13;4.74;;;4.74;;
73132;SDS011;61320;52.008;4.530;2023-09-18T09:52:44;4.80;;;4.80;;
73132;SDS011;61320;52.008;4.530;2023-09-18T09:55:20;5.25;;;5.25;;
73132;SDS011;61320;52.008;4.530;2023-09-18T09:57:48;5.06;;;5.06;;
73132;SDS011;61320;52.008;4.530;2023-09-18T10:00:16;4.42;;;4.42;;
73132;SDS011;61320;52.008;4.530;2023-09-18T10:03:00;4.78;;;4.78;;
73132;SDS011;61320;52.008;4.530;2023-09-18T10:05:30;4.92;;;4.92;;
73132;SDS011;61320;52.008;4.530;2023-09-18T10:07:59;5.24;;;5.24;;
73132;SDS011;61320;52.008;4.530;2023-09-18T10:10:29;5.13;;;5.13;;
73132;SDS011;61320;52.008;4.530;2023-09-18T10:13:00;5.14;;;5.14;;
73132;SDS011;61320;52.008;4.530;2023-09-18T10:15:33;5.35;;;5.35;;
73132;SDS011;61320;52.008;4.530;2023-09-18T10:18:04;5.39;;;5.39;;
73132;SDS011;61320;52.008;4.530;2023-09-18T10:20:36;5.68;;;5.68;;
73132;SDS011;61320;52.008;4.530;2023-09-18T10:23:09;5.81;;;5.81;;
73132;SDS011;61320;52.008;4.530;2023-09-18T10:25:48;6.19;;;6.19;;
73132;SDS011;61320;52.008;4.530;2023-09-18T10:28:21;6.04;;;6.04;;
73132;SDS011;61320;52.008;4.530;2023-09-18T10:30:48;5.28;;;5.28;;
73132;SDS011;61320;52.008;4.530;2023-09-18T10:33:16;4.93;;;4.93;;
73132;SDS011;61320;52.008;4.530;2023-09-18T10:35:42;4.78;;;4.78;;
73132;SDS011;61320;52.008;4.530;2023-09-18T10:38:08;4.60;;;4.60;;
73132;SDS011;61320;52.008;4.530;2023-09-18T10:40:35;4.62;;;4.62;;
73132;SDS011;61320;52.008;4.530;2023-09-18T10:43:02;4.92;;;4.92;;
73132;SDS011;61320;52.008;4.530;2023-09-18T10:45:30;4.69;;;4.69;;
73132;SDS011;61320;52.008;4.530;2023-09-18T10:47:57;4.58;;;4.58;;
73132;SDS011;61320;52.008;4.530;2023-09-18T10:50:23;4.37;;;4.37;;
73132;SDS011;61320;52.008;4.530;2023-09-18T10:52:50;4.46;;;4.46;;
73132;SDS011;61320;52.008;4.530;2023-09-18T10:55:15;4.20;;;4.20;;
73132;SDS011;61320;52.008;4.530;2023-09-18T10:57:51;4.34;;;4.34;;
73132;SDS011;61320;52.008;4.530;2023-09-18T11:00:17;4.30;;;4.30;;
73132;SDS011;61320;52.008;4.530;2023-09-18T11:02:48;4.23;;;4.23;;
73132;SDS011;61320;52.008;4.530;2023-09-18T11:05:14;4.22;;;4.22;;
73132;SDS011;61320;52.008;4.530;2023-09-18T11:08:02;3.89;;;3.89;;
73132;SDS011;61320;52.008;4.530;2023-09-18T11:10:36;3.90;;;3.90;;
73132;SDS011;61320;52.008;4.530;2023-09-18T11:13:05;3.60;;;3.60;;
73132;SDS011;61320;52.008;4.530;2023-09-18T11:15:31;3.81;;;3.81;;
73132;SDS011;61320;52.008;4.530;2023-09-18T11:17:58;3.93;;;3.93;;
73132;SDS011;61320;52.008;4.530;2023-09-18T11:20:26;4.00;;;4.00;;
73132;SDS011;61320;52.008;4.530;2023-09-18T11:23:01;4.15;;;4.15;;
73132;SDS011;61320;52.008;4.530;2023-09-18T11:25:42;4.09;;;4.09;;
73132;SDS011;61320;52.008;4.530;2023-09-18T11:28:29;4.49;;;4.49;;
73132;SDS011;61320;52.008;4.530;2023-09-18T11:30:56;4.42;;;4.42;;
73132;SDS011;61320;52.008;4.530;2023-09-18T11:36:03;4.61;;;4.61;;
73132;SDS011;61320;52.008;4.530;2023-09-18T11:38:31;4.89;;;4.89;;
73132;SDS011;61320;52.008;4.530;2023-09-18T11:40:59;5.75;;;5.75;;
73132;SDS011;61320;52.008;4.530;2023-09-18T11:43:27;6.03;;;6.03;;
73132;SDS011;61320;52.008;4.530;2023-09-18T11:46:00;5.90;;;5.90;;
73132;SDS011;61320;52.008;4.530;2023-09-18T11:48:29;5.77;;;5.77;;
73132;SDS011;61320;52.008;4.530;2023-09-18T11:50:59;6.60;;;6.60;;
73132;SDS011;61320;52.008;4.530;2023-09-18T11:53:28;6.27;;;6.27;;
73132;SDS011;61320;52.008;4.530;2023-09-18T12:00:33;6.22;;;6.22;;
73132;SDS011;61320;52.008;4.530;2023-09-18T12:04:06;5.75;;;5.75;;
73132;SDS011;61320;52.008;4.530;2023-09-18T12:06:38;5.29;;;5.29;;
73132;SDS011;61320;52.008;4.530;2023-09-18T12:09:06;5.68;;;5.68;;
73132;SDS011;61320;52.008;4.530;2023-09-18T12:11:48;5.68;;;5.68;;
73132;SDS011;61320;52.008;4.530;2023-09-18T12:14:18;5.83;;;5.83;;
73132;SDS011;61320;52.008;4.530;2023-09-18T12:16:45;5.74;;;5.74;;
73132;SDS011;61320;52.008;4.530;2023-09-18T12:19:18;6.13;;;6.13;;
73132;SDS011;61320;52.008;4.530;2023-09-18T12:21:46;6.10;;;6.10;;
73132;SDS011;61320;52.008;4.530;2023-09-18T12:24:13;5.92;;;5.92;;
73132;SDS011;61320;52.008;4.530;2023-09-18T12:26:39;5.72;;;5.72;;
73132;SDS011;61320;52.008;4.530;2023-09-18T12:29:05;5.44;;;5.44;;
73132;SDS011;61320;52.008;4.530;2023-09-18T12:31:32;5.32;;;5.32;;
73132;SDS011;61320;52.008;4.530;2023-09-18T12:33:58;5.59;;;5.59;;
73132;SDS011;61320;52.008;4.530;2023-09-18T12:36:24;5.56;;;5.56;;
73132;SDS011;61320;52.008;4.530;2023-09-18T12:38:57;5.65;;;5.65;;
73132;SDS011;61320;52.008;4.530;2023-09-18T12:41:26;5.92;;;5.92;;
73132;SDS011;61320;52.008;4.530;2023-09-18T12:43:52;5.54;;;5.54;;
73132;SDS011;61320;52.008;4.530;2023-09-18T12:46:19;5.49;;;5.49;;
73132;SDS011;61320;52.008;4.530;2023-09-18T12:48:46;5.70;;;5.70;;
73132;SDS011;61320;52.008;4.530;2023-09-18T12:51:12;5.18;;;5.18;;
73132;SDS011;61320;52.008;4.530;2023-09-18T12:53:39;5.09;;;5.09;;
73132;SDS011;61320;52.008;4.530;2023-09-18T12:56:06;5.71;;;5.71;;
73132;SDS011;61320;52.008;4.530;2023-09-18T12:58:37;5.39;;;5.39;;
73132;SDS011;61320;52.008;4.530;2023-09-18T13:01:09;5.02;;;5.02;;
73132;SDS011;61320;52.008;4.530;2023-09-18T13:03:46;4.99;;;4.99;;
73132;SDS011;61320;52.008;4.530;2023-09-18T13:06:18;4.68;;;4.68;;
73132;SDS011;61320;52.008;4.530;2023-09-18T13:08:44;4.53;;;4.53;;
73132;SDS011;61320;52.008;4.530;2023-09-18T13:11:11;4.81;;;4.81;;
73132;SDS011;61320;52.008;4.530;2023-09-18T13:13:39;4.98;;;4.98;;
73132;SDS011;61320;52.008;4.530;2023-09-18T13:16:06;4.88;;;4.88;;
73132;SDS011;61320;52.008;4.530;2023-09-18T13:18:36;4.81;;;4.81;;
73132;SDS011;61320;52.008;4.530;2023-09-18T13:21:11;4.87;;;4.87;;
73132;SDS011;61320;52.008;4.530;2023-09-18T13:23:39;4.73;;;4.73;;
73132;SDS011;61320;52.008;4.530;2023-09-18T13:26:06;4.76;;;4.76;;
73132;SDS011;61320;52.008;4.530;2023-09-18T13:28:35;4.50;;;4.50;;
73132;SDS011;61320;52.008;4.530;2023-09-18T13:31:01;4.65;;;4.65;;
73132;SDS011;61320;52.008;4.530;2023-09-18T13:33:31;4.41;;;4.41;;
73132;SDS011;61320;52.008;4.530;2023-09-18T13:35:58;4.50;;;4.50;;
73132;SDS011;61320;52.008;4.530;2023-09-18T13:38:24;4.20;;;4.20;;
73132;SDS011;61320;52.008;4.530;2023-09-18T13:40:51;4.44;;;4.44;;
73132;SDS011;61320;52.008;4.530;2023-09-18T13:43:20;4.16;;;4.16;;
73132;SDS011;61320;52.008;4.530;2023-09-18T13:45:47;3.81;;;3.81;;
73132;SDS011;61320;52.008;4.530;2023-09-18T13:48:17;4.36;;;4.36;;
73132;SDS011;61320;52.008;4.530;2023-09-18T13:50:43;3.98;;;3.98;;
73132;SDS011;61320;52.008;4.530;2023-09-18T13:53:09;3.84;;;3.84;;
73132;SDS011;61320;52.008;4.530;2023-09-18T13:55:35;3.79;;;3.79;;
73132;SDS011;61320;52.008;4.530;2023-09-18T13:58:00;3.85;;;3.85;;
73132;SDS011;61320;52.008;4.530;2023-09-18T14:00:30;3.70;;;3.70;;
73132;SDS011;61320;52.008;4.530;2023-09-18T14:02:57;3.48;;;3.48;;
73132;SDS011;61320;52.008;4.530;2023-09-18T14:05:28;3.55;;;3.55;;
73132;SDS011;61320;52.008;4.530;2023-09-18T14:07:55;3.47;;;3.47;;
73132;SDS011;61320;52.008;4.530;2023-09-18T14:10:25;3.44;;;3.44;;
73132;SDS011;61320;52.008;4.530;2023-09-18T14:12:52;3.42;;;3.42;;
73132;SDS011;61320;52.008;4.530;2023-09-18T14:15:17;3.55;;;3.55;;
73132;SDS011;61320;52.008;4.530;2023-09-18T14:17:43;3.69;;;3.69;;
73132;SDS011;61320;52.008;4.530;2023-09-18T14:20:09;3.56;;;3.56;;
73132;SDS011;61320;52.008;4.530;2023-09-18T14:22:35;4.35;;;4.35;;
73132;SDS011;61320;52.008;4.530;2023-09-18T14:25:02;4.65;;;4.65;;
73132;SDS011;61320;52.008;4.530;2023-09-18T14:27:30;5.63;;;5.63;;
73132;SDS011;61320;52.008;4.530;2023-09-18T14:29:55;5.18;;;5.18;;
73132;SDS011;61320;52.008;4.530;2023-09-18T14:32:21;5.22;;;5.22;;
73132;SDS011;61320;52.008;4.530;2023-09-18T14:34:47;4.98;;;4.98;;
73132;SDS011;61320;52.008;4.530;2023-09-18T14:37:13;5.19;;;5.19;;
73132;SDS011;61320;52.008;4.530;2023-09-18T14:39:39;5.31;;;5.31;;
73132;SDS011;61320;52.008;4.530;2023-09-18T14:42:04;4.79;;;4.79;;
73132;SDS011;61320;52.008;4.530;2023-09-18T14:44:30;4.45;;;4.45;;
73132;SDS011;61320;52.008;4.530;2023-09-18T14:46:55;4.09;;;4.09;;
73132;SDS011;61320;52.008;4.530;2023-09-18T14:49:21;3.81;;;3.81;;
73132;SDS011;61320;52.008;4.530;2023-09-18T14:51:48;3.20;;;3.20;;
73132;SDS011;61320;52.008;4.530;2023-09-18T14:54:15;3.32;;;3.32;;
73132;SDS011;61320;52.008;4.530;2023-09-18T14:56:41;2.97;;;2.97;;